Portada
Imágenes satélite Pronóstico 15 díasClimaPredicción Marítima Ciclones Rayo AeropuertosFAQ Noticias Acerca
El tiempo : Europa África América del Norte América del Sur Asia Australia-Oceanía Otros
Idiomas Contacto

Ezeiza, Argentina

latitud: 34-49S, longitud: 058-32W, altitud: 20 m


METAR: SAEZ 261400Z 23005KT 170V250 CAVOK 22/13 Q1015
TAF: SAEZ 261100Z 2612/2712 06005KT CAVOK TX27/2619Z TN14/2710Z BECMG 2707/2711 36010KT

Hora: 11:51 (14:51 UTC)

Observación

El informe se hizo hace 51 minutos, a las 14:00 UTC
Viento 5 kt del suroeste, variando entre sur y oeste-suroeste
Temperatura 22°C
Humedad 57%
Presión 1015 hPa
Visibilidad 10 km o más
sin nubes por debajo de 1500 m y sin presencia de cumulonimbus.

Cambiar las unidades

Pronóstico

El informe se hizo hace 3 horas y 51 minutos, a las 11:00 UTC
Pronóstico válido del 26 a las 12 UTC al 27 a las 12 UTC
Viento 5 kt del este-noreste
Visibilidad 10 km o más
sin nubes por debajo de 1500 m y sin presencia de cumulonimbus.
Evolucionando progresivamente
del 27 a las 07 UTC al 27 a las 11 UTC
Viento 10 kt del norte
La información que se ofrece en estas páginas está sujeta a una cláusula de exención de responsabilidad
El tiempo : Europa África América del Norte América del Sur Asia Australia-Oceanía Otros
Imágenes satélite Pronóstico 15 díasClimaPredicción Marítima Ciclones Rayo AeropuertosFAQ Idiomas Contacto Noticias Acerca